Time;durP1;ratioP1;P1;durP2;ratioP2;P2;SDS_P1;SDS_P2;PMS_P1;PMS_P2;Temp;Humidity;BMP_temperature;BMP_pressure;BME280_temperature;BME280_humidity;BME280_pressure;Samples;Min_cycle;Max_cycle;Signal;HPM_P1;HPM_P2
2022/12/15 00:40:06;;;;;;;21.02;10.90;;;;;;;;;;5038179;28;20039;-81
2022/12/15 00:42:31;;;;;;;;;;;;;;;;;;5036650;28;20814;-80
2022/12/15 00:44:57;;;;;;;19.75;11.65;;;;;;;;;;5053889;28;20299;-81
2022/12/15 00:47:22;;;;;;;19.63;11.35;;;;;;;;;;5016937;28;20026;-80
2022/12/15 01:22:37;;;;;;;21.08;10.80;;;;;;;;;;5035420;28;20036;-80
2022/12/15 01:25:03;;;;;;;;;;;;;;;;;;5013737;28;20120;-80
2022/12/15 01:27:28;;;;;;;21.80;11.93;;;;;;;;;;5028681;28;20286;-81
2022/12/15 01:29:54;;;;;;;22.42;11.52;;;;;;;;;;5034922;28;20028;-81
2022/12/15 01:32:19;;;;;;;20.20;11.57;;;;;;;;;;5036193;28;20120;-81
2022/12/15 01:34:45;;;;;;;18.38;11.07;;;;;;;;;;5036020;28;20035;-80
2022/12/15 01:37:10;;;;;;;22.58;11.05;;;;;;;;;;5015383;28;20037;-80
2022/12/15 01:42:20;;;;;;;25.02;12.15;;;;;;;;;;5054383;28;20040;-81
2022/12/15 01:44:45;;;;;;;;;;;;;;;;;;5064167;28;20036;-80
2022/12/15 01:47:11;;;;;;;24.60;11.52;;;;;;;;;;5068875;28;19966;-80
2022/12/15 01:49:36;;;;;;;23.40;12.05;;;;;;;;;;5030378;28;20033;-80
2022/12/15 01:52:03;;;;;;;20.55;11.45;;;;;;;;;;5068819;28;20127;-80
2022/12/15 01:54:28;;;;;;;;;;;;;;;;;;5035210;28;20028;-80
2022/12/15 01:56:54;;;;;;;22.50;11.48;;;;;;;;;;5057647;28;19966;-80
2022/12/15 01:59:19;;;;;;;;;;;;;;;;;;5034839;28;20479;-81
2022/12/15 02:01:47;;;;;;;21.50;12.27;;;;;;;;;;5052652;28;19913;-80
2022/12/15 02:04:13;;;;;;;22.85;11.73;;;;;;;;;;5055192;28;20024;-80
2022/12/15 02:06:38;;;;;;;;;;;;;;;;;;5035186;28;20044;-80
2022/12/15 02:09:04;;;;;;;23.20;11.98;;;;;;;;;;5034523;28;19909;-80
2022/12/15 02:11:29;;;;;;;;;;;;;;;;;;5020056;28;20085;-80
2022/12/15 02:14:04;;;;;;;23.77;11.32;;;;;;;;;;5055867;28;20026;-80
2022/12/15 02:16:32;;;;;;;22.10;11.85;;;;;;;;;;5037036;28;20068;-81
2022/12/15 02:19:01;;;;;;;27.98;12.45;;;;;;;;;;5057542;28;20036;-80
2022/12/15 02:21:47;;;;;;;20.77;11.82;;;;;;;;;;5021145;28;20067;-81
2022/12/15 02:24:18;;;;;;;24.80;12.13;;;;;;;;;;5051462;28;20072;-82
2022/12/15 02:26:44;;;;;;;27.55;12.57;;;;;;;;;;5053123;28;20043;-80
2022/12/15 02:29:12;;;;;;;21.02;12.10;;;;;;;;;;5052372;28;20400;-81
2022/12/15 02:32:05;;;;;;;20.38;11.65;;;;;;;;;;5035244;28;20508;-82
2022/12/15 02:34:48;;;;;;;24.13;12.20;;;;;;;;;;5012489;28;20037;-82
2022/12/15 02:37:16;;;;;;;25.45;12.20;;;;;;;;;;5029008;28;20033;-81
2022/12/15 02:39:41;;;;;;;22.98;12.63;;;;;;;;;;5035161;28;20135;-82
2022/12/15 02:42:08;;;;;;;24.27;12.40;;;;;;;;;;5034548;28;20045;-81
2022/12/15 02:44:36;;;;;;;25.40;12.88;;;;;;;;;;5018157;28;20124;-83
2022/12/15 02:47:02;;;;;;;23.05;12.07;;;;;;;;;;5052873;28;20029;-81
2022/12/15 02:49:30;;;;;;;25.08;11.90;;;;;;;;;;5058640;28;20539;-81
2022/12/15 02:51:58;;;;;;;21.15;11.45;;;;;;;;;;5024956;28;20045;-79
2022/12/15 02:54:43;;;;;;;19.90;11.93;;;;;;;;;;5050910;28;20032;-80
2022/12/15 02:57:17;;;;;;;25.33;12.43;;;;;;;;;;5056623;28;20059;-80
2022/12/15 02:59:44;;;;;;;24.52;12.25;;;;;;;;;;5039656;28;20099;-80
2022/12/15 03:02:10;;;;;;;25.70;12.63;;;;;;;;;;5022557;28;20395;-80
2022/12/15 03:04:35;;;;;;;22.77;12.85;;;;;;;;;;5039067;28;20033;-81
2022/12/15 03:07:01;;;;;;;;;;;;;;;;;;5033491;28;20111;-81
2022/12/15 03:09:27;;;;;;;19.33;11.77;;;;;;;;;;5055726;28;19913;-81
2022/12/15 03:11:52;;;;;;;;;;;;;;;;;;5039789;28;20152;-81
2022/12/15 03:14:18;;;;;;;20.73;10.35;;;;;;;;;;5037748;28;19912;-80
2022/12/15 03:16:43;;;;;;;16.95;10.85;;;;;;;;;;5039586;28;20068;-81
2022/12/15 03:19:09;;;;;;;;;;;;;;;;;;5055826;28;20124;-81
2022/12/15 03:21:34;;;;;;;17.40;10.25;;;;;;;;;;5055600;28;19908;-81
2022/12/15 03:24:00;;;;;;;;;;;;;;;;;;5055741;28;20107;-81
2022/12/15 03:26:25;;;;;;;17.85;10.23;;;;;;;;;;5054792;28;20366;-82
2022/12/15 03:28:51;;;;;;;17.80;10.18;;;;;;;;;;5055626;28;20116;-81
2022/12/15 03:31:17;;;;;;;;;;;;;;;;;;5054324;28;20033;-81
2022/12/15 03:33:42;;;;;;;19.92;10.10;;;;;;;;;;5040238;28;19970;-80
2022/12/15 03:36:08;;;;;;;18.95;10.95;;;;;;;;;;5040161;28;20021;-80
2022/12/15 03:38:33;;;;;;;18.90;10.57;;;;;;;;;;5019180;28;20055;-80
2022/12/15 03:40:59;;;;;;;19.85;10.68;;;;;;;;;;5036920;28;20099;-80
2022/12/15 03:43:24;;;;;;;17.45;10.30;;;;;;;;;;5037061;28;20488;-81
2022/12/15 03:45:50;;;;;;;18.15;10.45;;;;;;;;;;5040428;28;20044;-82
2022/12/15 03:48:15;;;;;;;;;;;;;;;;;;5041956;28;20033;-82
2022/12/15 03:50:41;;;;;;;18.38;10.13;;;;;;;;;;5044030;28;19915;-82
2022/12/15 03:53:06;;;;;;;;;;;;;;;;;;5038714;28;20041;-82
2022/12/15 03:55:32;;;;;;;17.63;10.15;;;;;;;;;;5054780;28;19908;-82
2022/12/15 03:57:58;;;;;;;;;;;;;;;;;;5037494;28;20037;-82
2022/12/15 04:00:23;;;;;;;20.10;10.75;;;;;;;;;;5054666;28;19919;-81
2022/12/15 04:02:49;;;;;;;;;;;;;;;;;;5055627;28;20028;-81
2022/12/15 04:05:16;;;;;;;18.20;11.18;;;;;;;;;;5047718;28;19908;-81
2022/12/15 04:07:41;;;;;;;21.30;11.48;;;;;;;;;;5029713;28;20041;-82
2022/12/15 04:10:06;;;;;;;;;;;;;;;;;;5031002;28;20396;-80
2022/12/15 04:12:32;;;;;;;18.67;11.52;;;;;;;;;;5046739;28;20020;-82
2022/12/15 04:14:57;;;;;;;19.13;10.30;;;;;;;;;;5054428;28;20052;-81
2022/12/15 04:17:23;;;;;;;19.92;10.95;;;;;;;;;;5054733;28;20017;-81
2022/12/15 04:22:33;;;;;;;19.40;11.05;;;;;;;;;;5038591;28;20045;-81
2022/12/15 05:33:21;;;;;;;20.13;10.23;;;;;;;;;;5053062;28;20396;-83
2022/12/15 05:35:46;;;;;;;;;;;;;;;;;;5062442;28;20025;-81
2022/12/15 05:38:11;;;;;;;27.77;12.55;;;;;;;;;;5038760;28;19920;-82
2022/12/15 05:40:37;;;;;;;25.77;12.35;;;;;;;;;;5048404;28;20041;-81
2022/12/15 05:43:02;;;;;;;;;;;;;;;;;;5060950;28;20076;-82
2022/12/15 05:45:28;;;;;;;21.60;12.65;;;;;;;;;;5055555;28;19989;-81
2022/12/15 05:47:53;;;;;;;22.65;12.75;;;;;;;;;;5063051;28;20480;-82
2022/12/15 05:50:19;;;;;;;20.80;11.30;;;;;;;;;;5038351;28;20453;-81
2022/12/15 05:52:44;;;;;;;20.15;10.77;;;;;;;;;;5034769;28;20029;-81
2022/12/15 05:55:10;;;;;;;23.05;12.10;;;;;;;;;;5045049;28;20086;-81
2022/12/15 05:57:36;;;;;;;21.05;12.02;;;;;;;;;;5043532;28;20033;-82
2022/12/15 06:00:02;;;;;;;20.60;12.25;;;;;;;;;;5038719;28;20040;-82
2022/12/15 06:02:37;;;;;;;22.25;12.77;;;;;;;;;;5036042;28;20036;-81
2022/12/15 06:05:02;;;;;;;;;;;;;;;;;;5034795;28;20050;-80
2022/12/15 06:07:27;;;;;;;18.45;10.95;;;;;;;;;;5034687;28;19915;-81
2022/12/15 06:09:53;;;;;;;18.67;11.10;;;;;;;;;;5034036;28;20032;-80
2022/12/15 06:12:18;;;;;;;;;;;;;;;;;;5018742;28;20036;-80
2022/12/15 06:14:44;;;;;;;17.80;10.65;;;;;;;;;;5052275;28;19970;-82
2022/12/15 06:17:09;;;;;;;17.85;10.80;;;;;;;;;;5052311;28;20032;-82
2022/12/15 06:19:35;;;;;;;18.73;10.80;;;;;;;;;;5040053;28;20507;-82
2022/12/15 06:22:00;;;;;;;19.42;10.77;;;;;;;;;;5053067;28;20049;-81
2022/12/15 06:24:26;;;;;;;19.15;10.77;;;;;;;;;;5058595;28;20035;-81
2022/12/15 06:26:51;;;;;;;18.65;11.13;;;;;;;;;;5018139;28;20036;-82
2022/12/15 06:29:17;;;;;;;19.77;11.38;;;;;;;;;;5052285;28;20069;-82
2022/12/15 06:31:42;;;;;;;21.85;12.55;;;;;;;;;;5033398;28;20075;-82
2022/12/15 06:34:08;;;;;;;;;;;;;;;;;;5038746;28;20119;-81
2022/12/15 06:36:33;;;;;;;24.33;13.52;;;;;;;;;;5059610;28;19909;-82
2022/12/15 06:38:59;;;;;;;;;;;;;;;;;;5053174;28;20033;-80
2022/12/15 06:41:25;;;;;;;18.85;11.57;;;;;;;;;;5053047;28;19916;-82
2022/12/15 06:43:54;;;;;;;19.58;12.07;;;;;;;;;;5053801;28;20029;-81
2022/12/15 06:46:20;;;;;;;18.60;11.35;;;;;;;;;;5017805;28;20040;-83
2022/12/15 06:48:45;;;;;;;;;;;;;;;;;;5031094;28;20037;-81
2022/12/15 06:51:12;;;;;;;17.60;10.80;;;;;;;;;;5058548;28;19920;-81
2022/12/15 06:53:37;;;;;;;23.25;11.45;;;;;;;;;;5012461;28;20025;-81
2022/12/15 06:56:03;;;;;;;;;;;;;;;;;;5041417;28;20033;-81
2022/12/15 06:58:28;;;;;;;16.58;10.50;;;;;;;;;;5054973;28;19909;-81
2022/12/15 07:00:54;;;;;;;;;;;;;;;;;;5048768;28;20033;-83
2022/12/15 07:03:20;;;;;;;22.35;10.82;;;;;;;;;;5051985;28;19944;-82
2022/12/15 07:05:45;;;;;;;;;;;;;;;;;;5018187;28;20043;-81
2022/12/15 07:08:11;;;;;;;20.73;10.57;;;;;;;;;;5051733;28;19915;-82
2022/12/15 07:10:36;;;;;;;;;;;;;;;;;;5021553;28;20033;-83
2022/12/15 07:13:02;;;;;;;18.05;11.05;;;;;;;;;;5051718;28;19916;-81
2022/12/15 07:15:27;;;;;;;17.98;11.00;;;;;;;;;;5051313;28;20144;-81
2022/12/15 07:17:56;;;;;;;17.05;10.52;;;;;;;;;;5026915;28;20045;-81
2022/12/15 07:20:21;;;;;;;17.27;10.45;;;;;;;;;;5051950;28;20033;-81
2022/12/15 07:22:47;;;;;;;;;;;;;;;;;;5052726;28;20041;-81
2022/12/15 07:25:12;;;;;;;18.60;10.60;;;;;;;;;;5051623;28;19928;-83
2022/12/15 07:27:37;;;;;;;;;;;;;;;;;;5044823;28;20568;-82
2022/12/15 07:30:03;;;;;;;18.08;10.57;;;;;;;;;;5048717;28;19912;-82
2022/12/15 07:32:29;;;;;;;;;;;;;;;;;;5039695;28;20023;-82
2022/12/15 07:34:55;;;;;;;17.30;10.55;;;;;;;;;;5020383;28;20069;-82
2022/12/15 07:37:20;;;;;;;19.00;11.45;;;;;;;;;;5051461;28;20028;-81
2022/12/15 07:39:46;;;;;;;20.92;11.63;;;;;;;;;;5033750;28;20133;-82
2022/12/15 07:42:11;;;;;;;;;;;;;;;;;;5056064;28;20024;-81
2022/12/15 07:44:36;;;;;;;22.63;13.40;;;;;;;;;;5036475;28;19995;-82
2022/12/15 07:47:02;;;;;;;22.95;12.00;;;;;;;;;;5055371;28;20032;-82
2022/12/15 07:49:27;;;;;;;20.27;11.38;;;;;;;;;;5055889;28;20079;-82
2022/12/15 07:51:57;;;;;;;;;;;;;;;;;;5046643;28;20495;-81
2022/12/15 07:54:22;;;;;;;20.65;12.18;;;;;;;;;;5067413;28;19966;-82
2022/12/15 07:56:48;;;;;;;;;;;;;;;;;;5030518;28;20024;-80
2022/12/15 07:59:13;;;;;;;18.80;11.10;;;;;;;;;;5054313;28;19913;-83
2022/12/15 08:01:39;;;;;;;18.35;10.88;;;;;;;;;;5074098;28;20059;-83
2022/12/15 08:04:04;;;;;;;18.80;11.80;;;;;;;;;;5072251;28;20033;-82
2022/12/15 08:06:30;;;;;;;19.58;11.98;;;;;;;;;;5046251;28;20412;-83
2022/12/15 08:08:56;;;;;;;18.42;11.10;;;;;;;;;;5055563;28;20106;-81
2022/12/15 08:11:21;;;;;;;18.58;11.00;;;;;;;;;;5070055;28;20036;-81
2022/12/15 08:13:47;;;;;;;18.35;10.90;;;;;;;;;;5036720;28;20033;-82
2022/12/15 08:16:12;;;;;;;21.60;12.63;;;;;;;;;;5036906;28;20053;-82
2022/12/15 08:18:38;;;;;;;22.02;11.85;;;;;;;;;;5053260;28;20044;-81
2022/12/15 08:21:04;;;;;;;20.50;12.23;;;;;;;;;;5037135;28;20041;-83
2022/12/15 08:23:29;;;;;;;;;;;;;;;;;;5024646;28;20420;-82
2022/12/15 08:26:00;;;;;;;20.77;12.70;;;;;;;;;;5055390;28;19908;-82
2022/12/15 08:28:26;;;;;;;22.90;14.40;;;;;;;;;;5037976;28;20047;-83
2022/12/15 08:30:51;;;;;;;;;;;;;;;;;;5055863;28;20028;-81
2022/12/15 08:33:16;;;;;;;19.95;10.82;;;;;;;;;;5056155;28;20627;-82
2022/12/15 08:35:43;;;;;;;;;;;;;;;;;;5037794;28;20060;-82
2022/12/15 08:38:08;;;;;;;20.23;12.50;;;;;;;;;;5053931;28;19986;-82
2022/12/15 08:40:33;;;;;;;;;;;;;;;;;;5055027;28;20464;-81
2022/12/15 08:42:59;;;;;;;21.08;12.88;;;;;;;;;;5059172;28;20366;-82
2022/12/15 08:45:24;;;;;;;;;;;;;;;;;;5044810;28;20029;-82
2022/12/15 08:47:50;;;;;;;21.20;12.77;;;;;;;;;;5048922;28;19913;-82
2022/12/15 08:50:16;;;;;;;37.90;20.88;;;;;;;;;;5065562;28;20039;-83
2022/12/15 08:52:41;;;;;;;22.38;11.60;;;;;;;;;;5054413;28;20496;-82
2022/12/15 08:55:07;;;;;;;;;;;;;;;;;;5054228;28;20025;-81
2022/12/15 08:57:32;;;;;;;19.73;11.75;;;;;;;;;;5055613;28;20001;-83
2022/12/15 08:59:57;;;;;;;19.60;11.55;;;;;;;;;;5066306;28;20016;-82
2022/12/15 09:02:23;;;;;;;18.67;11.32;;;;;;;;;;5055011;28;20075;-82
2022/12/15 09:04:50;;;;;;;17.80;11.07;;;;;;;;;;5022601;28;20124;-81
2022/12/15 09:07:15;;;;;;;19.95;12.40;;;;;;;;;;5026378;28;20052;-81
2022/12/15 09:09:41;;;;;;;18.60;11.65;;;;;;;;;;5069480;28;20025;-83
2022/12/15 09:12:07;;;;;;;;;;;;;;;;;;5062124;28;20044;-82
2022/12/15 09:14:32;;;;;;;21.98;12.00;;;;;;;;;;5059575;28;19919;-83
2022/12/15 09:16:58;;;;;;;21.95;11.57;;;;;;;;;;5055612;28;20522;-82
2022/12/15 09:19:24;;;;;;;17.20;11.02;;;;;;;;;;5039697;28;20041;-81
2022/12/15 09:21:49;;;;;;;22.20;12.48;;;;;;;;;;5055204;28;20037;-82
2022/12/15 09:24:15;;;;;;;20.65;11.60;;;;;;;;;;5071192;28;20035;-82
2022/12/15 09:26:41;;;;;;;25.65;14.82;;;;;;;;;;5036415;28;20404;-83
2022/12/15 09:29:10;;;;;;;19.17;12.20;;;;;;;;;;5053117;28;20039;-82
2022/12/15 09:31:36;;;;;;;20.33;12.48;;;;;;;;;;5068950;28;20047;-82
2022/12/15 09:34:01;;;;;;;22.80;13.07;;;;;;;;;;5038433;28;20501;-82
2022/12/15 09:36:27;;;;;;;20.85;12.65;;;;;;;;;;5065261;28;20162;-82
2022/12/15 09:38:53;;;;;;;;;;;;;;;;;;5054595;28;20037;-82
2022/12/15 09:41:21;;;;;;;24.90;15.02;;;;;;;;;;5053949;28;19919;-81
2022/12/15 09:43:51;;;;;;;25.33;14.55;;;;;;;;;;5019521;28;20052;-82
2022/12/15 09:46:35;;;;;;;21.83;13.30;;;;;;;;;;5020606;28;20029;-82
2022/12/15 09:49:02;;;;;;;23.40;13.80;;;;;;;;;;5055135;28;20029;-81
2022/12/15 09:51:48;;;;;;;22.60;13.35;;;;;;;;;;5040839;28;20082;-81
2022/12/15 09:54:13;;;;;;;21.83;12.98;;;;;;;;;;5021136;28;20128;-81
2022/12/15 09:56:49;;;;;;;20.33;12.55;;;;;;;;;;5035849;28;20523;-82
2022/12/15 09:59:19;;;;;;;22.73;12.80;;;;;;;;;;5052616;28;20037;-82
2022/12/15 10:01:46;;;;;;;21.23;13.27;;;;;;;;;;5035125;28;20028;-81
2022/12/15 10:04:12;;;;;;;27.73;16.08;;;;;;;;;;5035342;28;20114;-83
2022/12/15 10:06:39;;;;;;;37.83;21.00;;;;;;;;;;5052531;28;20053;-82
2022/12/15 10:09:21;;;;;;;19.88;11.90;;;;;;;;;;5035504;28;20124;-81
2022/12/15 10:11:58;;;;;;;20.70;12.18;;;;;;;;;;5034690;28;20040;-82
2022/12/15 10:14:35;;;;;;;18.83;11.68;;;;;;;;;;5039090;28;20037;-81
2022/12/15 10:17:05;;;;;;;18.73;11.23;;;;;;;;;;5061100;28;20156;-82
2022/12/15 10:19:36;;;;;;;18.75;10.90;;;;;;;;;;5066284;28;20109;-83
2022/12/15 10:22:02;;;;;;;15.88;10.30;;;;;;;;;;5049192;28;20059;-82
2022/12/15 10:24:28;;;;;;;15.18;9.68;;;;;;;;;;5049542;28;20028;-82
2022/12/15 10:26:57;;;;;;;16.67;9.80;;;;;;;;;;5022037;28;20044;-82
2022/12/15 10:29:23;;;;;;;15.98;9.57;;;;;;;;;;5054789;28;20470;-81
2022/12/15 10:31:48;;;;;;;;;;;;;;;;;;5053832;28;20037;-81
2022/12/15 10:34:31;;;;;;;16.42;9.35;;;;;;;;;;5055769;28;20298;-82
2022/12/15 10:36:56;;;;;;;14.00;9.48;;;;;;;;;;5062343;28;20024;-82
2022/12/15 10:39:22;;;;;;;14.98;9.38;;;;;;;;;;5052100;28;20087;-83
2022/12/15 10:42:08;;;;;;;16.05;9.70;;;;;;;;;;5041406;28;20052;-81
2022/12/15 10:44:36;;;;;;;14.88;9.02;;;;;;;;;;5050939;28;20049;-83
2022/12/15 10:47:07;;;;;;;16.17;10.52;;;;;;;;;;5051519;28;20029;-81
2022/12/15 10:49:33;;;;;;;16.35;9.82;;;;;;;;;;5034471;28;20072;-82
2022/12/15 10:51:59;;;;;;;;;;;;;;;;;;5034439;28;20455;-81
2022/12/15 10:54:33;;;;;;;17.20;9.30;;;;;;;;;;5051574;28;19912;-83
2022/12/15 10:56:59;;;;;;;15.32;9.93;;;;;;;;;;5051976;28;20415;-82
2022/12/15 10:59:24;;;;;;;;;;;;;;;;;;5034530;28;20021;-83
2022/12/15 11:01:50;;;;;;;17.08;9.88;;;;;;;;;;5051873;28;20398;-82
2022/12/15 11:04:33;;;;;;;14.95;9.07;;;;;;;;;;5033879;28;20025;-82
2022/12/15 11:06:59;;;;;;;14.75;9.45;;;;;;;;;;5049262;28;20051;-82
2022/12/15 11:09:25;;;;;;;;;;;;;;;;;;5040090;28;20528;-82
2022/12/15 11:14:49;;;;;;;16.15;9.65;;;;;;;;;;5013320;28;20037;-82
2022/12/15 11:17:14;;;;;;;;;;;;;;;;;;5041557;28;20036;-81
2022/12/15 11:19:43;;;;;;;17.63;10.40;;;;;;;;;;5038831;28;19970;-84
2022/12/15 11:22:30;;;;;;;15.77;10.10;;;;;;;;;;5043198;28;20055;-81
2022/12/15 11:24:57;;;;;;;17.50;9.85;;;;;;;;;;5050703;28;20403;-82
2022/12/15 11:27:26;;;;;;;15.68;9.60;;;;;;;;;;5041605;28;20406;-82
2022/12/15 11:29:51;;;;;;;13.90;8.80;;;;;;;;;;5022959;28;20430;-83
2022/12/15 11:32:16;;;;;;;;;;;;;;;;;;5040850;28;20115;-80
2022/12/15 11:34:43;;;;;;;17.38;10.32;;;;;;;;;;5063919;28;19923;-83
2022/12/15 11:37:12;;;;;;;18.50;11.27;;;;;;;;;;5019151;28;20021;-82
2022/12/15 11:39:47;;;;;;;18.55;11.30;;;;;;;;;;5020500;28;20029;-81
2022/12/15 11:42:25;;;;;;;16.63;10.13;;;;;;;;;;5055500;28;20423;-82
2022/12/15 11:44:59;;;;;;;18.95;11.35;;;;;;;;;;5026042;28;20041;-82
2022/12/15 11:47:25;;;;;;;19.52;11.20;;;;;;;;;;5037289;28;20407;-81
2022/12/15 11:49:50;;;;;;;;;;;;;;;;;;5037868;28;20036;-81
2022/12/15 11:52:22;;;;;;;20.13;12.25;;;;;;;;;;5037536;28;19939;-80
2022/12/15 11:54:51;;;;;;;20.35;11.13;;;;;;;;;;5053142;28;20037;-83
2022/12/15 11:57:35;;;;;;;19.20;11.30;;;;;;;;;;5034486;28;20052;-82
2022/12/15 12:00:03;;;;;;;19.63;11.20;;;;;;;;;;5063527;28;20021;-81
2022/12/15 12:02:43;;;;;;;16.83;10.38;;;;;;;;;;5046100;28;20036;-82
2022/12/15 12:05:14;;;;;;;18.70;11.63;;;;;;;;;;5048495;28;20043;-82
2022/12/15 12:07:43;;;;;;;18.83;10.27;;;;;;;;;;5043092;28;20036;-83
2022/12/15 12:10:14;;;;;;;18.92;10.57;;;;;;;;;;5040690;28;20028;-81
2022/12/15 12:12:46;;;;;;;18.45;11.15;;;;;;;;;;5036568;28;20049;-83
2022/12/15 12:15:11;;;;;;;18.35;11.27;;;;;;;;;;5020243;28;20125;-81
2022/12/15 12:17:36;;;;;;;;;;;;;;;;;;5054983;28;20120;-82
2022/12/15 12:20:07;;;;;;;20.95;11.27;;;;;;;;;;5054848;28;19920;-82
2022/12/15 12:22:38;;;;;;;19.20;10.88;;;;;;;;;;5038841;28;20059;-81
2022/12/15 12:25:08;;;;;;;19.17;11.45;;;;;;;;;;5066201;28;20064;-82
2022/12/15 12:27:33;;;;;;;21.05;11.70;;;;;;;;;;5036357;28;20048;-81
2022/12/15 12:29:59;;;;;;;;;;;;;;;;;;5053887;28;20036;-82
2022/12/15 12:32:32;;;;;;;20.83;12.73;;;;;;;;;;5063821;28;19919;-81
2022/12/15 12:35:01;;;;;;;22.35;12.52;;;;;;;;;;5039131;28;20032;-83
2022/12/15 12:37:30;;;;;;;19.38;11.80;;;;;;;;;;5036299;28;20031;-82
2022/12/15 12:39:58;;;;;;;20.20;11.35;;;;;;;;;;5045505;28;20124;-82
2022/12/15 12:42:29;;;;;;;19.30;11.15;;;;;;;;;;5036556;28;20036;-83
2022/12/15 12:44:55;;;;;;;19.70;10.82;;;;;;;;;;5065568;28;20102;-83
2022/12/15 12:47:25;;;;;;;19.17;11.38;;;;;;;;;;5036382;28;20049;-81
2022/12/15 12:49:52;;;;;;;20.90;11.65;;;;;;;;;;5045388;28;20041;-82
2022/12/15 12:52:28;;;;;;;15.93;9.65;;;;;;;;;;5041402;28;20025;-81
2022/12/15 12:54:58;;;;;;;20.17;11.23;;;;;;;;;;5018071;28;20034;-83
2022/12/15 12:57:32;;;;;;;19.55;10.90;;;;;;;;;;5052543;28;20487;-82
2022/12/15 12:59:59;;;;;;;18.67;10.70;;;;;;;;;;5036502;28;20064;-82
2022/12/15 13:02:24;;;;;;;16.35;9.90;;;;;;;;;;5027118;28;20022;-82
2022/12/15 13:04:50;;;;;;;18.52;10.48;;;;;;;;;;5040927;28;20399;-81
2022/12/15 13:07:29;;;;;;;21.20;10.95;;;;;;;;;;5045802;28;20038;-83
2022/12/15 13:10:07;;;;;;;20.42;12.30;;;;;;;;;;5042123;28;20041;-81
2022/12/15 13:12:44;;;;;;;19.00;11.27;;;;;;;;;;5062390;28;20032;-83
2022/12/15 13:15:10;;;;;;;19.75;11.60;;;;;;;;;;5042045;28;20044;-83
2022/12/15 13:17:42;;;;;;;20.00;11.77;;;;;;;;;;5019703;28;20400;-83
2022/12/15 13:20:21;;;;;;;19.70;11.30;;;;;;;;;;5016606;28;20034;-81
2022/12/15 13:22:47;;;;;;;19.63;11.35;;;;;;;;;;5030517;28;20045;-81
2022/12/15 13:25:26;;;;;;;18.23;11.38;;;;;;;;;;5016901;28;20041;-81
2022/12/15 13:27:53;;;;;;;18.08;10.88;;;;;;;;;;5035323;28;20032;-82
2022/12/15 13:30:18;;;;;;;20.15;11.82;;;;;;;;;;5056400;28;20078;-82
2022/12/15 13:32:44;;;;;;;17.55;10.25;;;;;;;;;;5054179;28;20044;-82
2022/12/15 13:35:13;;;;;;;16.05;10.45;;;;;;;;;;5028466;28;20029;-82
2022/12/15 13:37:54;;;;;;;20.13;11.75;;;;;;;;;;5046248;28;20043;-82
2022/12/15 13:40:31;;;;;;;18.15;10.98;;;;;;;;;;5035599;28;20120;-82
2022/12/15 13:43:03;;;;;;;19.48;11.20;;;;;;;;;;5018611;28;20443;-81
2022/12/15 13:45:40;;;;;;;19.83;11.35;;;;;;;;;;5054220;28;20044;-84
2022/12/15 13:48:11;;;;;;;20.55;12.05;;;;;;;;;;5035916;28;20431;-84
2022/12/15 13:50:43;;;;;;;22.25;12.43;;;;;;;;;;5035744;28;20041;-83
2022/12/15 13:53:12;;;;;;;22.05;12.02;;;;;;;;;;5067146;28;20043;-83
2022/12/15 13:55:38;;;;;;;19.48;11.75;;;;;;;;;;5050164;28;20162;-83
2022/12/15 13:58:03;;;;;;;;;;;;;;;;;;5046504;28;20033;-81
2022/12/15 14:00:29;;;;;;;20.63;10.07;;;;;;;;;;5052728;28;19908;-81
2022/12/15 14:03:07;;;;;;;17.60;10.88;;;;;;;;;;5041520;28;20068;-82
2022/12/15 14:05:33;;;;;;;22.40;11.68;;;;;;;;;;5033907;28;20570;-83
2022/12/15 14:07:59;;;;;;;18.20;10.18;;;;;;;;;;5070494;28;20036;-81
2022/12/15 14:10:34;;;;;;;19.38;10.48;;;;;;;;;;5033247;28;20045;-82
2022/12/15 14:13:26;;;;;;;17.23;10.48;;;;;;;;;;5035036;28;20094;-81
2022/12/15 14:15:51;;;;;;;19.08;10.27;;;;;;;;;;5053091;28;20385;-81
2022/12/15 14:18:17;;;;;;;;;;;;;;;;;;5053880;28;20085;-81
2022/12/15 14:20:42;;;;;;;13.60;7.57;;;;;;;;;;5069198;28;19963;-82
2022/12/15 14:23:20;;;;;;;17.00;9.68;;;;;;;;;;5053415;28;20101;-82
2022/12/15 14:25:53;;;;;;;16.88;9.82;;;;;;;;;;5034469;28;20041;-82
2022/12/15 14:28:25;;;;;;;16.88;9.27;;;;;;;;;;5035764;28;20506;-83
2022/12/15 14:30:51;;;;;;;15.57;9.10;;;;;;;;;;5059457;28;20151;-81
2022/12/15 14:33:16;;;;;;;;;;;;;;;;;;5021539;28;20107;-82
2022/12/15 14:35:43;;;;;;;15.05;8.38;;;;;;;;;;5052572;28;19916;-82
2022/12/15 14:38:13;;;;;;;16.90;10.25;;;;;;;;;;5038127;28;20027;-84
2022/12/15 14:40:39;;;;;;;16.67;10.30;;;;;;;;;;5019308;28;20042;-82
2022/12/15 14:43:04;;;;;;;;;;;;;;;;;;5059650;28;20033;-82
2022/12/15 14:45:30;;;;;;;14.20;8.68;;;;;;;;;;5046466;28;20334;-82
2022/12/15 14:47:55;;;;;;;;;;;;;;;;;;5039039;28;20530;-83
2022/12/15 14:50:21;;;;;;;15.50;8.70;;;;;;;;;;5035243;28;19912;-82
2022/12/15 14:52:47;;;;;;;;;;;;;;;;;;5037032;28;20539;-82
2022/12/15 14:55:24;;;;;;;14.75;8.98;;;;;;;;;;5037237;28;20008;-81
2022/12/15 14:57:51;;;;;;;16.90;9.88;;;;;;;;;;5051384;28;20035;-82
2022/12/15 15:00:26;;;;;;;15.55;8.80;;;;;;;;;;5066473;28;20027;-82
2022/12/15 15:03:27;;;;;;;16.77;9.02;;;;;;;;;;5057417;28;20064;-81
2022/12/15 15:06:06;;;;;;;17.30;9.93;;;;;;;;;;4974400;28;20046;-82
2022/12/15 15:08:32;;;;;;;17.08;9.48;;;;;;;;;;5029090;28;20133;-82
2022/12/15 15:10:58;;;;;;;;;;;;;;;;;;5065514;28;20025;-83
2022/12/15 15:13:25;;;;;;;17.13;9.80;;;;;;;;;;5034548;28;19965;-82
2022/12/15 15:15:53;;;;;;;16.65;9.95;;;;;;;;;;5038071;28;20107;-83
2022/12/15 15:18:23;;;;;;;17.20;9.65;;;;;;;;;;5018547;28;20071;-83
2022/12/15 15:20:50;;;;;;;16.15;9.13;;;;;;;;;;5039073;28;20403;-82
2022/12/15 15:23:18;;;;;;;17.00;9.32;;;;;;;;;;5018046;28;20064;-83
2022/12/15 15:25:49;;;;;;;17.67;9.82;;;;;;;;;;5040805;28;20555;-82
2022/12/15 15:28:18;;;;;;;16.23;10.23;;;;;;;;;;5056251;28;20062;-82
2022/12/15 15:30:47;;;;;;;15.80;9.85;;;;;;;;;;5056016;28;20041;-81
2022/12/15 15:33:12;;;;;;;17.50;10.35;;;;;;;;;;5021439;28;20098;-82
2022/12/15 15:35:41;;;;;;;15.27;9.10;;;;;;;;;;5058420;28;20060;-83
2022/12/15 15:38:13;;;;;;;16.83;10.23;;;;;;;;;;5054756;28;20035;-82
2022/12/15 15:40:38;;;;;;;20.98;13.10;;;;;;;;;;5063608;28;20094;-82
2022/12/15 15:43:09;;;;;;;16.52;10.13;;;;;;;;;;5064369;28;20029;-82
2022/12/15 15:45:34;;;;;;;17.85;10.30;;;;;;;;;;5058480;28;20040;-82
2022/12/15 15:48:00;;;;;;;18.50;10.00;;;;;;;;;;5035891;28;20025;-81
2022/12/15 15:50:27;;;;;;;20.17;10.55;;;;;;;;;;5030462;28;20037;-83
2022/12/15 15:52:52;;;;;;;18.65;10.40;;;;;;;;;;5059986;28;20414;-83
2022/12/15 15:55:19;;;;;;;17.48;9.98;;;;;;;;;;5060519;28;20036;-80
2022/12/15 15:57:45;;;;;;;19.45;10.95;;;;;;;;;;5042716;28;20036;-83
2022/12/15 16:00:20;;;;;;;17.00;10.43;;;;;;;;;;5052928;28;20021;-82
2022/12/15 16:02:46;;;;;;;17.73;9.77;;;;;;;;;;5020909;28;20550;-82
2022/12/15 16:05:12;;;;;;;15.90;10.15;;;;;;;;;;5039305;28;20029;-80
2022/12/15 16:07:37;;;;;;;19.08;10.98;;;;;;;;;;5056928;28;20087;-82
2022/12/15 16:10:03;;;;;;;19.17;11.00;;;;;;;;;;5038212;28;20028;-82
2022/12/15 16:12:37;;;;;;;17.33;9.63;;;;;;;;;;5059662;28;20037;-83
2022/12/15 16:15:08;;;;;;;18.50;10.70;;;;;;;;;;5034030;28;20135;-83
2022/12/15 16:17:33;;;;;;;18.05;11.35;;;;;;;;;;5071740;28;20482;-82
2022/12/15 16:19:58;;;;;;;18.30;11.02;;;;;;;;;;5054485;28;20031;-85
2022/12/15 16:22:24;;;;;;;17.10;9.82;;;;;;;;;;5050729;28;20033;-84
2022/12/15 16:24:49;;;;;;;;;;;;;;;;;;5036173;28;20119;-84
2022/12/15 16:27:15;;;;;;;19.90;10.52;;;;;;;;;;5055567;28;20011;-84
2022/12/15 16:29:40;;;;;;;18.17;10.27;;;;;;;;;;5033010;28;20551;-82
2022/12/15 16:32:06;;;;;;;;;;;;;;;;;;5029650;28;20020;-81
2022/12/15 16:34:31;;;;;;;25.70;12.60;;;;;;;;;;5061648;28;19913;-79
2022/12/15 16:36:56;;;;;;;;;;;;;;;;;;5055263;28;20013;-80
2022/12/15 16:39:23;;;;;;;21.00;12.70;;;;;;;;;;5055391;28;20362;-81
2022/12/15 16:41:50;;;;;;;19.48;13.68;;;;;;;;;;5037884;28;20407;-80
2022/12/15 16:44:16;;;;;;;20.77;13.23;;;;;;;;;;5037584;28;20043;-80
2022/12/15 16:46:41;;;;;;;;;;;;;;;;;;5058025;28;20020;-80
2022/12/15 16:49:07;;;;;;;19.67;13.50;;;;;;;;;;5058847;28;20372;-82
2022/12/15 16:51:32;;;;;;;;;;;;;;;;;;5055962;28;20017;-79
2022/12/15 16:53:57;;;;;;;18.73;12.73;;;;;;;;;;5055028;28;19975;-80
2022/12/15 16:56:23;;;;;;;19.98;12.98;;;;;;;;;;5048384;28;20028;-81
2022/12/15 16:58:48;;;;;;;;;;;;;;;;;;5018362;28;20416;-80
2022/12/15 17:01:14;;;;;;;19.00;12.82;;;;;;;;;;5034018;28;19909;-82
2022/12/15 17:03:41;;;;;;;;;;;;;;;;;;5036756;28;20033;-80
2022/12/15 17:06:07;;;;;;;21.33;13.88;;;;;;;;;;5053437;28;20050;-80
2022/12/15 17:08:32;;;;;;;;;;;;;;;;;;5029134;28;20076;-81
2022/12/15 17:10:58;;;;;;;21.27;13.88;;;;;;;;;;5066479;28;19908;-81
2022/12/15 17:13:23;;;;;;;;;;;;;;;;;;5054677;28;20037;-82
2022/12/15 17:15:49;;;;;;;29.15;15.13;;;;;;;;;;5053840;28;19920;-82